Hlavní strana
METAR-TAF:

METAR-TAF

Letiště :

Mezinárodní letiště Hongkong

Hongkong, Čína

zeměpisná šířka: 22-19N, zeměpisná délka: 113-55E, výška: 9 m

Aktuální stav počasí

Zpráva byla vytvořena před 15 minutami, v 23:00 UTC
Severovýchodní vítr 12 kt
Teplota 14°C
Vlhkost vzduchu 67%
Tlak 1026 hPa
Viditelnost 10 km a více
Skoro jasno ve výšce 2300 ft

METAR: VHHH 132300Z 04012KT 9999 FEW023 14/08 Q1026 NOSIG

Čas: 07:15 (23:15 UTC)

Předpověď počasí

Zpráva byla vytvořena před 6 hodinami a 15 minutami, v 17:00 UTC
Předpověď platná od 13 v 18 UTC do 14 v 24 UTC
Severovýchodní vítr 10 kt
Viditelnost 10 km a více
Skoro jasno ve výšce 3000 ft
Dočasný
od 14 v 03 UTC do 14 v 09 UTC
Severozápadní vítr 10 kt
Dočasný
od 14 v 09 UTC do 14 v 15 UTC
vítr z různých směrů 5 kt

TAF: VHHH 131700Z 1318/1424 04010KT 9999 FEW030 TX19/1406Z TN14/1323Z TN16/1423Z TEMPO 1403/1409 32010KT TEMPO 1409/1415 VRB05KT

Stav a předpovědi počasí z více než 4 000 letišť (zprávy METAR a TAF).

Červené a žluté tečky na mapě představují dostupné meteorologické stanice.

Když kurzor umístíte na tečku, zobrazí se název stanice.

Pak kliknutím zobrazíte stav a předpověď počasí.

Chcete-li změnit mapu, kliknutím na zelené tlačítko se znaménkem +mapu přiblížíte, kliknutím na zelené tlačítko se znaménkem – mapu oddálíte a kliknutím na zelené šipky přejdete na sousední mapy.


METAR-TAF: